sensor_id;sensor_type;location;lat;lon;timestamp;temperature;humidity
22456;DHT22;11395;53.204;6.502;2023-06-10T00:01:48;24.90;68.90
22456;DHT22;11395;53.204;6.502;2023-06-10T00:04:15;25.00;69.00
22456;DHT22;11395;53.204;6.502;2023-06-10T00:06:43;24.90;68.90
22456;DHT22;11395;53.204;6.502;2023-06-10T00:09:10;24.90;69.00
22456;DHT22;11395;53.204;6.502;2023-06-10T00:11:37;24.90;68.90
22456;DHT22;11395;53.204;6.502;2023-06-10T00:14:03;24.90;69.00
22456;DHT22;11395;53.204;6.502;2023-06-10T00:16:30;24.90;69.00
22456;DHT22;11395;53.204;6.502;2023-06-10T00:18:56;24.90;69.00
22456;DHT22;11395;53.204;6.502;2023-06-10T00:21:36;24.90;69.10
22456;DHT22;11395;53.204;6.502;2023-06-10T00:24:09;24.90;69.20
22456;DHT22;11395;53.204;6.502;2023-06-10T00:26:39;24.90;69.10
22456;DHT22;11395;53.204;6.502;2023-06-10T00:29:07;24.90;69.00
22456;DHT22;11395;53.204;6.502;2023-06-10T00:31:34;24.80;68.80
22456;DHT22;11395;53.204;6.502;2023-06-10T00:34:01;24.90;69.10
22456;DHT22;11395;53.204;6.502;2023-06-10T00:36:28;24.80;68.90
22456;DHT22;11395;53.204;6.502;2023-06-10T00:38:56;24.90;69.10
22456;DHT22;11395;53.204;6.502;2023-06-10T00:41:23;24.80;69.00
22456;DHT22;11395;53.204;6.502;2023-06-10T00:43:50;24.80;69.10
22456;DHT22;11395;53.204;6.502;2023-06-10T00:46:16;24.80;69.00
22456;DHT22;11395;53.204;6.502;2023-06-10T00:48:43;24.80;69.10
22456;DHT22;11395;53.204;6.502;2023-06-10T00:51:11;24.80;70.00
22456;DHT22;11395;53.204;6.502;2023-06-10T00:53:40;24.80;69.20
22456;DHT22;11395;53.204;6.502;2023-06-10T00:56:07;24.70;69.10
22456;DHT22;11395;53.204;6.502;2023-06-10T00:58:35;24.70;69.20
22456;DHT22;11395;53.204;6.502;2023-06-10T01:01:02;24.70;69.30
22456;DHT22;11395;53.204;6.502;2023-06-10T01:03:30;24.70;69.30
22456;DHT22;11395;53.204;6.502;2023-06-10T01:06:13;24.70;69.30
22456;DHT22;11395;53.204;6.502;2023-06-10T01:08:57;24.60;69.20
22456;DHT22;11395;53.204;6.502;2023-06-10T01:11:38;24.70;69.30
22456;DHT22;11395;53.204;6.502;2023-06-10T01:14:07;24.60;69.30
22456;DHT22;11395;53.204;6.502;2023-06-10T01:16:35;24.60;69.20
22456;DHT22;11395;53.204;6.502;2023-06-10T01:19:03;24.70;69.40
22456;DHT22;11395;53.204;6.502;2023-06-10T01:21:29;24.60;69.30
22456;DHT22;11395;53.204;6.502;2023-06-10T01:23:57;24.60;69.40
22456;DHT22;11395;53.204;6.502;2023-06-10T01:26:28;24.60;69.30
22456;DHT22;11395;53.204;6.502;2023-06-10T01:29:00;24.60;69.40
22456;DHT22;11395;53.204;6.502;2023-06-10T01:31:42;24.60;69.60
22456;DHT22;11395;53.204;6.502;2023-06-10T01:34:11;24.60;69.40
22456;DHT22;11395;53.204;6.502;2023-06-10T01:36:40;24.60;69.20
22456;DHT22;11395;53.204;6.502;2023-06-10T01:39:08;24.50;69.50
22456;DHT22;11395;53.204;6.502;2023-06-10T01:41:35;24.50;69.30
22456;DHT22;11395;53.204;6.502;2023-06-10T01:44:01;24.50;69.30
22456;DHT22;11395;53.204;6.502;2023-06-10T01:46:28;24.50;69.40
22456;DHT22;11395;53.204;6.502;2023-06-10T01:48:56;24.50;69.30
22456;DHT22;11395;53.204;6.502;2023-06-10T01:51:22;24.50;69.20
22456;DHT22;11395;53.204;6.502;2023-06-10T01:53:48;24.50;69.40
22456;DHT22;11395;53.204;6.502;2023-06-10T01:56:14;24.50;69.40
22456;DHT22;11395;53.204;6.502;2023-06-10T01:58:43;24.40;69.30
22456;DHT22;11395;53.204;6.502;2023-06-10T02:01:10;24.50;69.30
22456;DHT22;11395;53.204;6.502;2023-06-10T02:03:37;24.50;69.40
22456;DHT22;11395;53.204;6.502;2023-06-10T02:06:03;24.40;69.40
22456;DHT22;11395;53.204;6.502;2023-06-10T02:08:29;24.40;69.40
22456;DHT22;11395;53.204;6.502;2023-06-10T02:10:55;24.40;69.40
22456;DHT22;11395;53.204;6.502;2023-06-10T02:13:21;24.40;69.40
22456;DHT22;11395;53.204;6.502;2023-06-10T02:15:52;24.40;69.40
22456;DHT22;11395;53.204;6.502;2023-06-10T02:18:20;24.40;69.40
22456;DHT22;11395;53.204;6.502;2023-06-10T02:20:46;24.50;69.40
22456;DHT22;11395;53.204;6.502;2023-06-10T02:23:13;24.40;69.40
22456;DHT22;11395;53.204;6.502;2023-06-10T02:25:39;24.30;69.20
22456;DHT22;11395;53.204;6.502;2023-06-10T02:28:05;24.30;69.20
22456;DHT22;11395;53.204;6.502;2023-06-10T02:30:32;24.30;69.20
22456;DHT22;11395;53.204;6.502;2023-06-10T02:32:58;24.30;69.20
22456;DHT22;11395;53.204;6.502;2023-06-10T02:35:25;24.30;69.30
22456;DHT22;11395;53.204;6.502;2023-06-10T02:37:52;24.30;69.10
22456;DHT22;11395;53.204;6.502;2023-06-10T02:40:20;24.20;69.20
22456;DHT22;11395;53.204;6.502;2023-06-10T02:42:46;24.30;69.20
22456;DHT22;11395;53.204;6.502;2023-06-10T02:45:13;24.20;69.10
22456;DHT22;11395;53.204;6.502;2023-06-10T02:47:42;24.20;69.20
22456;DHT22;11395;53.204;6.502;2023-06-10T02:50:09;24.20;69.30
22456;DHT22;11395;53.204;6.502;2023-06-10T02:52:43;24.00;69.20
22456;DHT22;11395;53.204;6.502;2023-06-10T02:55:10;24.20;69.40
22456;DHT22;11395;53.204;6.502;2023-06-10T02:57:37;24.20;69.30
22456;DHT22;11395;53.204;6.502;2023-06-10T03:00:05;24.20;69.20
22456;DHT22;11395;53.204;6.502;2023-06-10T03:02:35;24.10;69.20
22456;DHT22;11395;53.204;6.502;2023-06-10T03:05:04;24.10;69.30
22456;DHT22;11395;53.204;6.502;2023-06-10T03:07:31;24.10;69.20
22456;DHT22;11395;53.204;6.502;2023-06-10T03:09:58;24.10;69.40
22456;DHT22;11395;53.204;6.502;2023-06-10T03:12:24;24.10;69.30
22456;DHT22;11395;53.204;6.502;2023-06-10T03:14:51;24.10;69.20
22456;DHT22;11395;53.204;6.502;2023-06-10T03:17:18;24.10;69.40
22456;DHT22;11395;53.204;6.502;2023-06-10T03:19:45;24.10;69.30
22456;DHT22;11395;53.204;6.502;2023-06-10T03:22:13;24.00;69.20
22456;DHT22;11395;53.204;6.502;2023-06-10T03:24:49;24.10;69.20
22456;DHT22;11395;53.204;6.502;2023-06-10T03:27:16;24.10;69.10
22456;DHT22;11395;53.204;6.502;2023-06-10T03:29:45;24.10;69.00
22456;DHT22;11395;53.204;6.502;2023-06-10T03:32:12;24.00;68.90
22456;DHT22;11395;53.204;6.502;2023-06-10T03:34:40;24.00;69.00
22456;DHT22;11395;53.204;6.502;2023-06-10T03:37:07;24.00;69.10
22456;DHT22;11395;53.204;6.502;2023-06-10T03:39:33;24.00;69.10
22456;DHT22;11395;53.204;6.502;2023-06-10T03:42:01;24.00;69.20
22456;DHT22;11395;53.204;6.502;2023-06-10T03:44:28;24.00;69.20
22456;DHT22;11395;53.204;6.502;2023-06-10T03:46:55;24.00;69.20
22456;DHT22;11395;53.204;6.502;2023-06-10T03:49:22;24.00;69.20
22456;DHT22;11395;53.204;6.502;2023-06-10T03:51:54;24.00;69.10
22456;DHT22;11395;53.204;6.502;2023-06-10T03:54:20;24.00;69.20
22456;DHT22;11395;53.204;6.502;2023-06-10T03:56:47;24.00;69.10
22456;DHT22;11395;53.204;6.502;2023-06-10T03:59:14;24.00;69.10
22456;DHT22;11395;53.204;6.502;2023-06-10T04:01:40;24.00;69.20
22456;DHT22;11395;53.204;6.502;2023-06-10T04:04:07;24.10;69.00
22456;DHT22;11395;53.204;6.502;2023-06-10T04:06:35;23.90;68.90
22456;DHT22;11395;53.204;6.502;2023-06-10T04:09:01;23.90;69.00
22456;DHT22;11395;53.204;6.502;2023-06-10T04:11:28;23.90;69.00
22456;DHT22;11395;53.204;6.502;2023-06-10T04:13:56;23.90;68.90
22456;DHT22;11395;53.204;6.502;2023-06-10T04:16:23;23.90;69.00
22456;DHT22;11395;53.204;6.502;2023-06-10T04:18:50;23.90;69.00
22456;DHT22;11395;53.204;6.502;2023-06-10T04:21:17;23.90;69.00
22456;DHT22;11395;53.204;6.502;2023-06-10T04:23:43;23.90;68.80
22456;DHT22;11395;53.204;6.502;2023-06-10T04:26:10;23.90;68.80
22456;DHT22;11395;53.204;6.502;2023-06-10T04:28:42;23.90;68.90
22456;DHT22;11395;53.204;6.502;2023-06-10T04:31:08;23.90;68.90
22456;DHT22;11395;53.204;6.502;2023-06-10T04:33:35;23.90;68.80
22456;DHT22;11395;53.204;6.502;2023-06-10T04:36:03;23.90;69.00
22456;DHT22;11395;53.204;6.502;2023-06-10T04:38:31;23.90;68.90
22456;DHT22;11395;53.204;6.502;2023-06-10T04:40:58;23.90;69.00
22456;DHT22;11395;53.204;6.502;2023-06-10T04:43:25;23.90;68.90
22456;DHT22;11395;53.204;6.502;2023-06-10T04:45:51;23.90;68.80
22456;DHT22;11395;53.204;6.502;2023-06-10T04:48:17;23.90;68.90
22456;DHT22;11395;53.204;6.502;2023-06-10T04:50:43;23.90;68.80
22456;DHT22;11395;53.204;6.502;2023-06-10T04:53:11;23.90;68.80
22456;DHT22;11395;53.204;6.502;2023-06-10T04:55:39;23.90;68.90
22456;DHT22;11395;53.204;6.502;2023-06-10T04:58:05;23.90;68.70
22456;DHT22;11395;53.204;6.502;2023-06-10T05:00:31;23.90;68.80
22456;DHT22;11395;53.204;6.502;2023-06-10T05:02:57;23.90;68.70
22456;DHT22;11395;53.204;6.502;2023-06-10T05:05:23;23.90;68.70
22456;DHT22;11395;53.204;6.502;2023-06-10T05:07:50;23.90;68.60
22456;DHT22;11395;53.204;6.502;2023-06-10T05:10:16;23.90;68.80
22456;DHT22;11395;53.204;6.502;2023-06-10T05:12:42;23.90;68.70
22456;DHT22;11395;53.204;6.502;2023-06-10T05:15:08;23.90;68.70
22456;DHT22;11395;53.204;6.502;2023-06-10T05:17:35;23.90;68.50
22456;DHT22;11395;53.204;6.502;2023-06-10T05:20:02;23.90;68.60
22456;DHT22;11395;53.204;6.502;2023-06-10T05:22:28;23.90;68.60
22456;DHT22;11395;53.204;6.502;2023-06-10T05:24:54;23.90;68.80
22456;DHT22;11395;53.204;6.502;2023-06-10T05:27:20;23.90;69.00
22456;DHT22;11395;53.204;6.502;2023-06-10T05:29:48;23.90;68.80
22456;DHT22;11395;53.204;6.502;2023-06-10T05:32:14;23.90;68.70
22456;DHT22;11395;53.204;6.502;2023-06-10T05:34:40;23.90;68.80
22456;DHT22;11395;53.204;6.502;2023-06-10T05:37:06;24.20;69.10
22456;DHT22;11395;53.204;6.502;2023-06-10T05:39:32;23.90;68.80
22456;DHT22;11395;53.204;6.502;2023-06-10T05:41:58;24.00;68.90
22456;DHT22;11395;53.204;6.502;2023-06-10T05:44:25;24.00;68.80
22456;DHT22;11395;53.204;6.502;2023-06-10T05:46:51;24.00;68.80
22456;DHT22;11395;53.204;6.502;2023-06-10T05:49:17;24.00;68.50
22456;DHT22;11395;53.204;6.502;2023-06-10T05:51:44;24.10;68.90
22456;DHT22;11395;53.204;6.502;2023-06-10T05:54:10;24.10;68.60
22456;DHT22;11395;53.204;6.502;2023-06-10T05:56:36;24.10;68.50
22456;DHT22;11395;53.204;6.502;2023-06-10T05:59:02;24.20;68.30
22456;DHT22;11395;53.204;6.502;2023-06-10T06:01:28;24.20;68.00
22456;DHT22;11395;53.204;6.502;2023-06-10T06:03:54;24.40;68.20
22456;DHT22;11395;53.204;6.502;2023-06-10T06:06:21;24.50;68.00
22456;DHT22;11395;53.204;6.502;2023-06-10T06:08:47;24.60;67.60
22456;DHT22;11395;53.204;6.502;2023-06-10T06:11:13;24.70;67.30
22456;DHT22;11395;53.204;6.502;2023-06-10T06:13:39;24.80;67.00
22456;DHT22;11395;53.204;6.502;2023-06-10T06:16:07;25.00;66.30
22456;DHT22;11395;53.204;6.502;2023-06-10T06:18:33;25.10;65.60
22456;DHT22;11395;53.204;6.502;2023-06-10T06:21:00;25.30;65.40
22456;DHT22;11395;53.204;6.502;2023-06-10T06:23:26;25.30;64.90
22456;DHT22;11395;53.204;6.502;2023-06-10T06:25:52;25.50;64.90
22456;DHT22;11395;53.204;6.502;2023-06-10T06:28:18;25.60;64.30
22456;DHT22;11395;53.204;6.502;2023-06-10T06:30:47;25.60;65.00
22456;DHT22;11395;53.204;6.502;2023-06-10T06:33:13;25.70;64.00
22456;DHT22;11395;53.204;6.502;2023-06-10T06:35:39;25.70;63.80
22456;DHT22;11395;53.204;6.502;2023-06-10T06:38:06;25.70;63.60
22456;DHT22;11395;53.204;6.502;2023-06-10T06:40:32;25.80;63.60
22456;DHT22;11395;53.204;6.502;2023-06-10T06:42:59;25.80;63.70
22456;DHT22;11395;53.204;6.502;2023-06-10T06:45:43;25.80;63.40
22456;DHT22;11395;53.204;6.502;2023-06-10T06:48:09;25.90;63.40
22456;DHT22;11395;53.204;6.502;2023-06-10T06:50:35;25.80;63.40
22456;DHT22;11395;53.204;6.502;2023-06-10T06:53:01;25.90;63.60
22456;DHT22;11395;53.204;6.502;2023-06-10T06:55:28;26.00;63.30
22456;DHT22;11395;53.204;6.502;2023-06-10T06:57:54;26.00;63.20
22456;DHT22;11395;53.204;6.502;2023-06-10T07:00:21;26.10;63.50
22456;DHT22;11395;53.204;6.502;2023-06-10T07:02:48;26.10;63.00
22456;DHT22;11395;53.204;6.502;2023-06-10T07:05:14;26.10;63.00
22456;DHT22;11395;53.204;6.502;2023-06-10T07:07:40;26.10;63.00
22456;DHT22;11395;53.204;6.502;2023-06-10T07:10:07;26.30;62.90
22456;DHT22;11395;53.204;6.502;2023-06-10T07:12:33;26.10;63.00
22456;DHT22;11395;53.204;6.502;2023-06-10T07:14:59;26.10;63.00
22456;DHT22;11395;53.204;6.502;2023-06-10T07:17:25;26.10;62.80
22456;DHT22;11395;53.204;6.502;2023-06-10T07:19:52;26.20;62.80
22456;DHT22;11395;53.204;6.502;2023-06-10T07:22:19;26.20;62.80
22456;DHT22;11395;53.204;6.502;2023-06-10T07:24:45;26.20;63.00
22456;DHT22;11395;53.204;6.502;2023-06-10T07:27:11;26.20;62.90
22456;DHT22;11395;53.204;6.502;2023-06-10T07:29:37;26.20;63.10
22456;DHT22;11395;53.204;6.502;2023-06-10T07:32:04;26.20;63.00
22456;DHT22;11395;53.204;6.502;2023-06-10T07:34:30;26.20;62.90
22456;DHT22;11395;53.204;6.502;2023-06-10T07:36:56;26.10;62.90
22456;DHT22;11395;53.204;6.502;2023-06-10T07:39:22;26.20;62.90
22456;DHT22;11395;53.204;6.502;2023-06-10T07:41:48;26.20;63.30
22456;DHT22;11395;53.204;6.502;2023-06-10T07:44:15;26.20;63.00
22456;DHT22;11395;53.204;6.502;2023-06-10T07:46:41;26.20;62.90
22456;DHT22;11395;53.204;6.502;2023-06-10T07:49:07;26.20;63.30
22456;DHT22;11395;53.204;6.502;2023-06-10T07:51:34;26.20;63.10
22456;DHT22;11395;53.204;6.502;2023-06-10T07:54:00;26.20;62.90
22456;DHT22;11395;53.204;6.502;2023-06-10T07:56:26;26.30;63.00
22456;DHT22;11395;53.204;6.502;2023-06-10T07:58:53;26.30;62.20
22456;DHT22;11395;53.204;6.502;2023-06-10T08:01:19;26.30;62.40
22456;DHT22;11395;53.204;6.502;2023-06-10T08:03:45;26.20;62.80
22456;DHT22;11395;53.204;6.502;2023-06-10T08:06:11;26.30;62.60
22456;DHT22;11395;53.204;6.502;2023-06-10T08:08:37;26.30;63.30
22456;DHT22;11395;53.204;6.502;2023-06-10T08:11:11;26.30;63.30
22456;DHT22;11395;53.204;6.502;2023-06-10T08:13:37;26.30;63.00
22456;DHT22;11395;53.204;6.502;2023-06-10T08:16:04;26.40;63.00
22456;DHT22;11395;53.204;6.502;2023-06-10T08:18:30;26.40;62.90
22456;DHT22;11395;53.204;6.502;2023-06-10T08:20:56;26.40;62.60
22456;DHT22;11395;53.204;6.502;2023-06-10T08:23:22;26.40;62.80
22456;DHT22;11395;53.204;6.502;2023-06-10T08:25:49;26.40;63.40
22456;DHT22;11395;53.204;6.502;2023-06-10T08:28:15;26.40;62.40
22456;DHT22;11395;53.204;6.502;2023-06-10T08:30:41;26.40;62.50
22456;DHT22;11395;53.204;6.502;2023-06-10T08:33:07;26.30;62.60
22456;DHT22;11395;53.204;6.502;2023-06-10T08:35:33;26.10;62.50
22456;DHT22;11395;53.204;6.502;2023-06-10T08:37:59;26.50;62.80
22456;DHT22;11395;53.204;6.502;2023-06-10T08:40:25;26.30;62.20
22456;DHT22;11395;53.204;6.502;2023-06-10T08:43:20;26.30;62.40
22456;DHT22;11395;53.204;6.502;2023-06-10T08:45:48;26.30;62.60
22456;DHT22;11395;53.204;6.502;2023-06-10T08:48:17;26.30;63.10
22456;DHT22;11395;53.204;6.502;2023-06-10T08:50:45;26.50;63.20
22456;DHT22;11395;53.204;6.502;2023-06-10T08:53:14;26.30;63.20
22456;DHT22;11395;53.204;6.502;2023-06-10T08:55:46;26.30;63.20
22456;DHT22;11395;53.204;6.502;2023-06-10T08:58:13;26.30;63.40
22456;DHT22;11395;53.204;6.502;2023-06-10T09:00:40;26.30;63.40
22456;DHT22;11395;53.204;6.502;2023-06-10T09:03:06;26.30;63.30
22456;DHT22;11395;53.204;6.502;2023-06-10T09:05:34;26.20;61.50
22456;DHT22;11395;53.204;6.502;2023-06-10T09:08:02;26.10;61.00
22456;DHT22;11395;53.204;6.502;2023-06-10T09:10:29;26.00;59.80
22456;DHT22;11395;53.204;6.502;2023-06-10T09:12:55;25.90;60.30
22456;DHT22;11395;53.204;6.502;2023-06-10T09:15:21;25.90;60.30
22456;DHT22;11395;53.204;6.502;2023-06-10T09:17:48;25.90;61.30
22456;DHT22;11395;53.204;6.502;2023-06-10T09:20:14;25.90;61.40
22456;DHT22;11395;53.204;6.502;2023-06-10T09:22:42;25.90;62.10
22456;DHT22;11395;53.204;6.502;2023-06-10T09:25:12;25.90;62.10
22456;DHT22;11395;53.204;6.502;2023-06-10T09:27:52;26.00;62.30
22456;DHT22;11395;53.204;6.502;2023-06-10T09:30:34;25.90;62.60
22456;DHT22;11395;53.204;6.502;2023-06-10T09:33:02;25.90;62.70
22456;DHT22;11395;53.204;6.502;2023-06-10T09:35:30;25.90;62.90
22456;DHT22;11395;53.204;6.502;2023-06-10T09:37:58;25.90;62.90
22456;DHT22;11395;53.204;6.502;2023-06-10T09:40:24;25.90;62.90
22456;DHT22;11395;53.204;6.502;2023-06-10T09:42:59;25.90;62.90
22456;DHT22;11395;53.204;6.502;2023-06-10T09:45:32;25.90;63.00
22456;DHT22;11395;53.204;6.502;2023-06-10T09:47:58;25.90;63.00
22456;DHT22;11395;53.204;6.502;2023-06-10T09:50:24;25.90;63.00
22456;DHT22;11395;53.204;6.502;2023-06-10T09:52:52;25.90;62.90
22456;DHT22;11395;53.204;6.502;2023-06-10T09:55:19;26.00;63.80
22456;DHT22;11395;53.204;6.502;2023-06-10T09:57:49;25.80;62.90
22456;DHT22;11395;53.204;6.502;2023-06-10T10:00:15;26.00;62.80
22456;DHT22;11395;53.204;6.502;2023-06-10T10:02:45;26.00;63.00
22456;DHT22;11395;53.204;6.502;2023-06-10T10:05:14;26.00;63.10
22456;DHT22;11395;53.204;6.502;2023-06-10T10:07:42;26.00;63.40
22456;DHT22;11395;53.204;6.502;2023-06-10T10:10:08;26.00;63.10
22456;DHT22;11395;53.204;6.502;2023-06-10T10:12:38;26.00;63.30
22456;DHT22;11395;53.204;6.502;2023-06-10T10:15:09;26.00;63.50
22456;DHT22;11395;53.204;6.502;2023-06-10T10:17:40;26.00;63.60
22456;DHT22;11395;53.204;6.502;2023-06-10T10:20:12;26.00;63.60
22456;DHT22;11395;53.204;6.502;2023-06-10T10:22:41;25.90;63.60
22456;DHT22;11395;53.204;6.502;2023-06-10T10:25:17;26.00;63.60
22456;DHT22;11395;53.204;6.502;2023-06-10T10:27:51;25.90;63.60
22456;DHT22;11395;53.204;6.502;2023-06-10T10:30:20;26.00;63.70
22456;DHT22;11395;53.204;6.502;2023-06-10T10:33:09;25.90;63.60
22456;DHT22;11395;53.204;6.502;2023-06-10T10:35:36;25.90;63.60
22456;DHT22;11395;53.204;6.502;2023-06-10T10:38:02;25.90;63.60
22456;DHT22;11395;53.204;6.502;2023-06-10T10:40:29;26.00;63.70
22456;DHT22;11395;53.204;6.502;2023-06-10T10:42:56;25.90;63.60
22456;DHT22;11395;53.204;6.502;2023-06-10T10:45:24;25.90;63.60
22456;DHT22;11395;53.204;6.502;2023-06-10T10:47:53;25.90;63.70
22456;DHT22;11395;53.204;6.502;2023-06-10T10:50:22;25.90;63.80
22456;DHT22;11395;53.204;6.502;2023-06-10T10:52:55;26.00;63.80
22456;DHT22;11395;53.204;6.502;2023-06-10T10:55:23;25.90;63.70
22456;DHT22;11395;53.204;6.502;2023-06-10T10:58:04;26.00;63.80
22456;DHT22;11395;53.204;6.502;2023-06-10T11:03:07;26.00;63.90
22456;DHT22;11395;53.204;6.502;2023-06-10T11:05:39;26.00;63.80
22456;DHT22;11395;53.204;6.502;2023-06-10T11:08:05;26.00;63.90
22456;DHT22;11395;53.204;6.502;2023-06-10T11:10:37;26.00;64.20
22456;DHT22;11395;53.204;6.502;2023-06-10T11:13:13;26.00;64.10
22456;DHT22;11395;53.204;6.502;2023-06-10T11:31:30;26.00;64.50
22456;DHT22;11395;53.204;6.502;2023-06-10T11:33:58;26.00;64.60
22456;DHT22;11395;53.204;6.502;2023-06-10T11:36:26;26.00;64.60
22456;DHT22;11395;53.204;6.502;2023-06-10T11:41:24;26.00;64.60
22456;DHT22;11395;53.204;6.502;2023-06-10T11:43:55;26.00;64.30
22456;DHT22;11395;53.204;6.502;2023-06-10T11:46:24;26.00;64.30
22456;DHT22;11395;53.204;6.502;2023-06-10T11:48:55;26.00;64.30
22456;DHT22;11395;53.204;6.502;2023-06-10T11:51:25;26.00;64.30
22456;DHT22;11395;53.204;6.502;2023-06-10T11:53:52;26.00;64.40
22456;DHT22;11395;53.204;6.502;2023-06-10T11:56:23;26.10;64.40
22456;DHT22;11395;53.204;6.502;2023-06-10T11:58:54;26.10;64.30
22456;DHT22;11395;53.204;6.502;2023-06-10T12:01:21;26.10;64.40
22456;DHT22;11395;53.204;6.502;2023-06-10T12:03:56;26.10;64.50
22456;DHT22;11395;53.204;6.502;2023-06-10T12:06:23;26.10;64.50
22456;DHT22;11395;53.204;6.502;2023-06-10T12:08:49;26.10;64.40
22456;DHT22;11395;53.204;6.502;2023-06-10T12:11:15;26.10;64.50
22456;DHT22;11395;53.204;6.502;2023-06-10T12:13:48;26.10;64.50
22456;DHT22;11395;53.204;6.502;2023-06-10T12:16:15;26.10;64.30
22456;DHT22;11395;53.204;6.502;2023-06-10T12:18:45;26.10;64.40
22456;DHT22;11395;53.204;6.502;2023-06-10T12:21:19;26.20;64.30
22456;DHT22;11395;53.204;6.502;2023-06-10T12:31:57;26.20;64.40
22456;DHT22;11395;53.204;6.502;2023-06-10T12:34:34;26.20;64.50
22456;DHT22;11395;53.204;6.502;2023-06-10T12:37:02;26.20;64.30
22456;DHT22;11395;53.204;6.502;2023-06-10T12:39:31;26.20;64.50
22456;DHT22;11395;53.204;6.502;2023-06-10T12:41:58;26.20;64.40
22456;DHT22;11395;53.204;6.502;2023-06-10T12:44:35;26.20;64.30
22456;DHT22;11395;53.204;6.502;2023-06-10T12:47:08;26.20;64.40
22456;DHT22;11395;53.204;6.502;2023-06-10T12:49:34;26.30;64.30
22456;DHT22;11395;53.204;6.502;2023-06-10T12:52:01;26.30;64.20
22456;DHT22;11395;53.204;6.502;2023-06-10T12:54:27;26.40;64.30
22456;DHT22;11395;53.204;6.502;2023-06-10T12:56:53;26.30;64.20
22456;DHT22;11395;53.204;6.502;2023-06-10T12:59:19;26.40;64.20
22456;DHT22;11395;53.204;6.502;2023-06-10T13:01:52;26.40;64.10
22456;DHT22;11395;53.204;6.502;2023-06-10T13:04:18;26.40;64.00
22456;DHT22;11395;53.204;6.502;2023-06-10T13:06:46;26.40;63.90
22456;DHT22;11395;53.204;6.502;2023-06-10T13:09:13;26.50;63.90
22456;DHT22;11395;53.204;6.502;2023-06-10T13:11:40;26.50;63.90
22456;DHT22;11395;53.204;6.502;2023-06-10T13:14:07;26.50;64.00
22456;DHT22;11395;53.204;6.502;2023-06-10T13:16:33;26.50;63.80
22456;DHT22;11395;53.204;6.502;2023-06-10T13:19:00;26.50;64.00
22456;DHT22;11395;53.204;6.502;2023-06-10T13:21:28;26.50;63.70
22456;DHT22;11395;53.204;6.502;2023-06-10T13:23:54;26.50;63.80
22456;DHT22;11395;53.204;6.502;2023-06-10T13:26:20;26.60;64.00
22456;DHT22;11395;53.204;6.502;2023-06-10T13:28:47;26.60;63.60
22456;DHT22;11395;53.204;6.502;2023-06-10T13:31:13;26.60;63.60
22456;DHT22;11395;53.204;6.502;2023-06-10T13:33:39;26.60;63.80
22456;DHT22;11395;53.204;6.502;2023-06-10T13:36:06;26.60;63.80
22456;DHT22;11395;53.204;6.502;2023-06-10T13:38:32;26.60;63.70
22456;DHT22;11395;53.204;6.502;2023-06-10T13:40:58;26.60;63.70
22456;DHT22;11395;53.204;6.502;2023-06-10T13:43:24;26.60;64.00
22456;DHT22;11395;53.204;6.502;2023-06-10T13:45:50;26.60;63.90
22456;DHT22;11395;53.204;6.502;2023-06-10T13:48:17;26.60;64.00
22456;DHT22;11395;53.204;6.502;2023-06-10T13:50:43;26.60;63.90
22456;DHT22;11395;53.204;6.502;2023-06-10T13:53:12;26.60;64.50
22456;DHT22;11395;53.204;6.502;2023-06-10T13:55:38;26.70;63.70
22456;DHT22;11395;53.204;6.502;2023-06-10T13:58:04;26.70;63.70
22456;DHT22;11395;53.204;6.502;2023-06-10T14:00:31;26.70;63.60
22456;DHT22;11395;53.204;6.502;2023-06-10T14:02:57;26.70;63.60
22456;DHT22;11395;53.204;6.502;2023-06-10T14:05:23;26.70;63.60
22456;DHT22;11395;53.204;6.502;2023-06-10T14:07:50;26.70;63.60
22456;DHT22;11395;53.204;6.502;2023-06-10T14:10:16;26.70;63.40
22456;DHT22;11395;53.204;6.502;2023-06-10T14:12:42;26.70;63.50
22456;DHT22;11395;53.204;6.502;2023-06-10T14:15:08;26.70;63.50
22456;DHT22;11395;53.204;6.502;2023-06-10T14:17:34;26.70;63.40
22456;DHT22;11395;53.204;6.502;2023-06-10T14:20:00;26.70;63.50
22456;DHT22;11395;53.204;6.502;2023-06-10T14:22:27;26.80;63.60
22456;DHT22;11395;53.204;6.502;2023-06-10T14:24:53;26.70;63.50
22456;DHT22;11395;53.204;6.502;2023-06-10T14:27:19;26.70;63.60
22456;DHT22;11395;53.204;6.502;2023-06-10T14:29:45;26.70;63.60
22456;DHT22;11395;53.204;6.502;2023-06-10T14:32:12;26.70;63.60
22456;DHT22;11395;53.204;6.502;2023-06-10T14:34:38;26.70;63.80
22456;DHT22;11395;53.204;6.502;2023-06-10T14:37:05;26.70;63.80
22456;DHT22;11395;53.204;6.502;2023-06-10T14:39:33;26.70;63.70
22456;DHT22;11395;53.204;6.502;2023-06-10T14:41:59;26.80;63.90
22456;DHT22;11395;53.204;6.502;2023-06-10T14:44:25;26.80;64.00
22456;DHT22;11395;53.204;6.502;2023-06-10T14:46:51;26.80;64.20
22456;DHT22;11395;53.204;6.502;2023-06-10T14:49:18;26.90;64.30
22456;DHT22;11395;53.204;6.502;2023-06-10T14:51:44;26.90;64.40
22456;DHT22;11395;53.204;6.502;2023-06-10T14:54:10;26.90;64.30
22456;DHT22;11395;53.204;6.502;2023-06-10T14:56:37;26.90;64.20
22456;DHT22;11395;53.204;6.502;2023-06-10T14:59:03;26.90;64.10
22456;DHT22;11395;53.204;6.502;2023-06-10T15:01:29;27.00;64.20
22456;DHT22;11395;53.204;6.502;2023-06-10T15:03:55;26.90;64.10
22456;DHT22;11395;53.204;6.502;2023-06-10T15:06:21;27.00;63.80
22456;DHT22;11395;53.204;6.502;2023-06-10T15:08:48;27.00;64.00
22456;DHT22;11395;53.204;6.502;2023-06-10T15:11:15;26.90;63.90
22456;DHT22;11395;53.204;6.502;2023-06-10T15:13:41;26.90;64.00
22456;DHT22;11395;53.204;6.502;2023-06-10T15:16:07;27.00;64.00
22456;DHT22;11395;53.204;6.502;2023-06-10T15:18:33;27.00;63.90
22456;DHT22;11395;53.204;6.502;2023-06-10T15:20:59;27.00;64.70
22456;DHT22;11395;53.204;6.502;2023-06-10T15:23:25;27.20;64.00
22456;DHT22;11395;53.204;6.502;2023-06-10T15:25:52;27.00;63.80
22456;DHT22;11395;53.204;6.502;2023-06-10T15:28:18;27.00;63.80
22456;DHT22;11395;53.204;6.502;2023-06-10T15:30:44;27.00;63.80
22456;DHT22;11395;53.204;6.502;2023-06-10T15:33:10;27.10;63.80
22456;DHT22;11395;53.204;6.502;2023-06-10T15:35:36;27.10;63.70
22456;DHT22;11395;53.204;6.502;2023-06-10T15:38:02;27.00;63.80
22456;DHT22;11395;53.204;6.502;2023-06-10T15:40:28;27.00;63.50
22456;DHT22;11395;53.204;6.502;2023-06-10T15:42:55;27.00;64.50
22456;DHT22;11395;53.204;6.502;2023-06-10T15:45:21;27.00;63.70
22456;DHT22;11395;53.204;6.502;2023-06-10T15:47:47;27.00;63.40
22456;DHT22;11395;53.204;6.502;2023-06-10T15:50:13;27.00;63.30
22456;DHT22;11395;53.204;6.502;2023-06-10T15:52:39;27.00;63.40
22456;DHT22;11395;53.204;6.502;2023-06-10T15:55:05;27.00;63.30
22456;DHT22;11395;53.204;6.502;2023-06-10T15:57:32;26.90;63.50
22456;DHT22;11395;53.204;6.502;2023-06-10T15:59:58;26.90;63.70
22456;DHT22;11395;53.204;6.502;2023-06-10T16:02:24;26.90;63.60